sensor_id;sensor_type;location;lat;lon;timestamp;temperature;humidity
65231;DHT22;51813;40.666;16.602;2023-09-19T00:00:42;26.30;54.90
65231;DHT22;51813;40.666;16.602;2023-09-19T00:03:10;26.30;55.20
65231;DHT22;51813;40.666;16.602;2023-09-19T00:05:38;26.20;55.60
65231;DHT22;51813;40.666;16.602;2023-09-19T00:08:04;26.20;55.90
65231;DHT22;51813;40.666;16.602;2023-09-19T00:10:31;26.20;55.60
65231;DHT22;51813;40.666;16.602;2023-09-19T00:12:57;26.20;55.50
65231;DHT22;51813;40.666;16.602;2023-09-19T00:15:26;26.20;56.30
65231;DHT22;51813;40.666;16.602;2023-09-19T00:17:55;26.20;55.30
65231;DHT22;51813;40.666;16.602;2023-09-19T00:20:21;26.20;55.90
65231;DHT22;51813;40.666;16.602;2023-09-19T00:22:49;26.10;54.90
65231;DHT22;51813;40.666;16.602;2023-09-19T00:25:17;26.20;55.30
65231;DHT22;51813;40.666;16.602;2023-09-19T00:27:43;26.20;55.20
65231;DHT22;51813;40.666;16.602;2023-09-19T00:30:11;26.20;55.60
65231;DHT22;51813;40.666;16.602;2023-09-19T00:32:45;26.10;55.70
65231;DHT22;51813;40.666;16.602;2023-09-19T00:35:16;26.10;55.10
65231;DHT22;51813;40.666;16.602;2023-09-19T00:37:42;26.20;55.60
65231;DHT22;51813;40.666;16.602;2023-09-19T00:40:08;26.10;55.70
65231;DHT22;51813;40.666;16.602;2023-09-19T00:42:40;26.10;55.80
65231;DHT22;51813;40.666;16.602;2023-09-19T00:45:10;26.10;56.00
65231;DHT22;51813;40.666;16.602;2023-09-19T00:47:41;26.10;55.60
65231;DHT22;51813;40.666;16.602;2023-09-19T00:50:08;26.20;55.60
65231;DHT22;51813;40.666;16.602;2023-09-19T00:52:35;26.20;55.40
65231;DHT22;51813;40.666;16.602;2023-09-19T00:55:06;26.10;55.60
65231;DHT22;51813;40.666;16.602;2023-09-19T00:57:33;26.10;55.00
65231;DHT22;51813;40.666;16.602;2023-09-19T00:59:59;26.10;56.00
65231;DHT22;51813;40.666;16.602;2023-09-19T01:02:26;26.10;54.90
65231;DHT22;51813;40.666;16.602;2023-09-19T01:04:55;26.10;55.30
65231;DHT22;51813;40.666;16.602;2023-09-19T01:07:21;26.10;54.90
65231;DHT22;51813;40.666;16.602;2023-09-19T01:09:48;26.10;55.30
65231;DHT22;51813;40.666;16.602;2023-09-19T01:12:19;26.10;55.70
65231;DHT22;51813;40.666;16.602;2023-09-19T01:15:03;26.10;55.80
65231;DHT22;51813;40.666;16.602;2023-09-19T01:17:34;26.10;55.30
65231;DHT22;51813;40.666;16.602;2023-09-19T01:28:20;26.10;55.20
65231;DHT22;51813;40.666;16.602;2023-09-19T01:30:56;26.00;55.70
65231;DHT22;51813;40.666;16.602;2023-09-19T01:33:24;26.00;55.30
65231;DHT22;51813;40.666;16.602;2023-09-19T01:35:51;26.00;55.70
65231;DHT22;51813;40.666;16.602;2023-09-19T01:38:19;26.00;55.90
65231;DHT22;51813;40.666;16.602;2023-09-19T01:40:57;26.00;55.50
65231;DHT22;51813;40.666;16.602;2023-09-19T01:43:37;26.00;55.70
65231;DHT22;51813;40.666;16.602;2023-09-19T01:46:22;26.00;55.20
65231;DHT22;51813;40.666;16.602;2023-09-19T01:51:46;26.00;55.40
65231;DHT22;51813;40.666;16.602;2023-09-19T01:54:22;26.00;55.60
65231;DHT22;51813;40.666;16.602;2023-09-19T01:57:26;26.00;55.20
65231;DHT22;51813;40.666;16.602;2023-09-19T02:00:06;26.10;55.20
65231;DHT22;51813;40.666;16.602;2023-09-19T02:02:37;26.10;55.00
65231;DHT22;51813;40.666;16.602;2023-09-19T02:05:04;26.10;54.90
65231;DHT22;51813;40.666;16.602;2023-09-19T02:07:31;26.00;55.00
65231;DHT22;51813;40.666;16.602;2023-09-19T02:10:04;26.00;55.50
65231;DHT22;51813;40.666;16.602;2023-09-19T02:12:32;26.00;55.40
65231;DHT22;51813;40.666;16.602;2023-09-19T02:15:01;26.00;55.10
65231;DHT22;51813;40.666;16.602;2023-09-19T02:17:26;26.00;55.40
65231;DHT22;51813;40.666;16.602;2023-09-19T02:19:55;26.00;55.30
65231;DHT22;51813;40.666;16.602;2023-09-19T02:22:21;26.00;55.20
65231;DHT22;51813;40.666;16.602;2023-09-19T02:24:50;26.10;55.00
65231;DHT22;51813;40.666;16.602;2023-09-19T02:27:16;26.00;54.90
65231;DHT22;51813;40.666;16.602;2023-09-19T02:29:43;26.10;55.00
65231;DHT22;51813;40.666;16.602;2023-09-19T02:32:09;26.00;55.10
65231;DHT22;51813;40.666;16.602;2023-09-19T02:34:35;26.00;55.30
65231;DHT22;51813;40.666;16.602;2023-09-19T02:37:05;26.00;55.50
65231;DHT22;51813;40.666;16.602;2023-09-19T02:39:31;25.90;55.50
65231;DHT22;51813;40.666;16.602;2023-09-19T02:41:57;25.90;55.60
65231;DHT22;51813;40.666;16.602;2023-09-19T02:44:23;25.90;55.30
65231;DHT22;51813;40.666;16.602;2023-09-19T02:46:50;25.90;55.30
65231;DHT22;51813;40.666;16.602;2023-09-19T02:49:16;26.00;55.10
65231;DHT22;51813;40.666;16.602;2023-09-19T02:51:43;26.00;55.10
65231;DHT22;51813;40.666;16.602;2023-09-19T02:54:09;26.00;55.10
65231;DHT22;51813;40.666;16.602;2023-09-19T02:56:35;25.90;55.20
65231;DHT22;51813;40.666;16.602;2023-09-19T02:59:01;25.90;55.30
65231;DHT22;51813;40.666;16.602;2023-09-19T03:01:27;25.90;55.30
65231;DHT22;51813;40.666;16.602;2023-09-19T03:03:54;25.90;55.40
65231;DHT22;51813;40.666;16.602;2023-09-19T03:06:20;25.80;54.90
65231;DHT22;51813;40.666;16.602;2023-09-19T03:08:47;25.90;55.60
65231;DHT22;51813;40.666;16.602;2023-09-19T03:11:14;25.90;55.20
65231;DHT22;51813;40.666;16.602;2023-09-19T03:13:41;25.90;55.40
65231;DHT22;51813;40.666;16.602;2023-09-19T03:16:08;25.90;55.00
65231;DHT22;51813;40.666;16.602;2023-09-19T03:18:34;25.90;54.70
65231;DHT22;51813;40.666;16.602;2023-09-19T03:21:00;25.90;55.10
65231;DHT22;51813;40.666;16.602;2023-09-19T03:23:26;25.90;54.80
65231;DHT22;51813;40.666;16.602;2023-09-19T03:25:53;25.80;55.40
65231;DHT22;51813;40.666;16.602;2023-09-19T03:28:19;25.80;55.10
65231;DHT22;51813;40.666;16.602;2023-09-19T03:30:46;25.80;54.70
65231;DHT22;51813;40.666;16.602;2023-09-19T03:33:12;25.80;55.00
65231;DHT22;51813;40.666;16.602;2023-09-19T03:35:39;25.80;54.70
65231;DHT22;51813;40.666;16.602;2023-09-19T03:38:05;25.80;55.00
65231;DHT22;51813;40.666;16.602;2023-09-19T03:40:31;25.80;55.20
65231;DHT22;51813;40.666;16.602;2023-09-19T03:42:58;25.90;55.10
65231;DHT22;51813;40.666;16.602;2023-09-19T03:45:25;25.80;55.00
65231;DHT22;51813;40.666;16.602;2023-09-19T03:47:52;25.80;55.30
65231;DHT22;51813;40.666;16.602;2023-09-19T03:50:17;25.90;55.10
65231;DHT22;51813;40.666;16.602;2023-09-19T03:52:44;25.90;55.20
65231;DHT22;51813;40.666;16.602;2023-09-19T03:55:10;25.80;55.20
65231;DHT22;51813;40.666;16.602;2023-09-19T03:57:36;25.90;55.90
65231;DHT22;51813;40.666;16.602;2023-09-19T04:00:02;25.90;55.10
65231;DHT22;51813;40.666;16.602;2023-09-19T04:02:30;26.00;54.90
65231;DHT22;51813;40.666;16.602;2023-09-19T04:04:59;26.00;54.90
65231;DHT22;51813;40.666;16.602;2023-09-19T04:07:24;26.00;54.90
65231;DHT22;51813;40.666;16.602;2023-09-19T04:09:54;26.00;54.90
65231;DHT22;51813;40.666;16.602;2023-09-19T04:12:20;25.90;54.80
65231;DHT22;51813;40.666;16.602;2023-09-19T04:14:46;25.90;55.20
65231;DHT22;51813;40.666;16.602;2023-09-19T04:17:12;25.90;55.30
65231;DHT22;51813;40.666;16.602;2023-09-19T04:19:38;25.80;55.40
65231;DHT22;51813;40.666;16.602;2023-09-19T04:22:04;25.80;55.50
65231;DHT22;51813;40.666;16.602;2023-09-19T04:24:29;25.80;55.30
65231;DHT22;51813;40.666;16.602;2023-09-19T04:26:57;25.90;55.30
65231;DHT22;51813;40.666;16.602;2023-09-19T04:29:24;25.90;55.20
65231;DHT22;51813;40.666;16.602;2023-09-19T04:31:52;26.00;55.10
65231;DHT22;51813;40.666;16.602;2023-09-19T04:34:17;26.00;54.90
65231;DHT22;51813;40.666;16.602;2023-09-19T04:36:43;25.90;54.90
65231;DHT22;51813;40.666;16.602;2023-09-19T04:39:09;25.90;55.00
65231;DHT22;51813;40.666;16.602;2023-09-19T04:41:36;25.80;55.00
65231;DHT22;51813;40.666;16.602;2023-09-19T04:44:07;25.80;55.20
65231;DHT22;51813;40.666;16.602;2023-09-19T04:46:35;25.80;55.20
65231;DHT22;51813;40.666;16.602;2023-09-19T04:49:02;25.80;55.10
65231;DHT22;51813;40.666;16.602;2023-09-19T04:51:30;25.90;54.90
65231;DHT22;51813;40.666;16.602;2023-09-19T04:54:00;26.00;54.80
65231;DHT22;51813;40.666;16.602;2023-09-19T04:56:26;26.00;54.60
65231;DHT22;51813;40.666;16.602;2023-09-19T04:58:54;26.00;54.50
65231;DHT22;51813;40.666;16.602;2023-09-19T05:01:19;26.00;54.70
65231;DHT22;51813;40.666;16.602;2023-09-19T05:03:48;25.90;54.50
65231;DHT22;51813;40.666;16.602;2023-09-19T05:06:18;25.80;54.70
65231;DHT22;51813;40.666;16.602;2023-09-19T05:08:44;25.80;54.90
65231;DHT22;51813;40.666;16.602;2023-09-19T05:11:09;25.80;55.00
65231;DHT22;51813;40.666;16.602;2023-09-19T05:13:35;25.90;54.90
65231;DHT22;51813;40.666;16.602;2023-09-19T05:16:01;26.00;54.80
65231;DHT22;51813;40.666;16.602;2023-09-19T05:18:29;26.00;54.60
65231;DHT22;51813;40.666;16.602;2023-09-19T05:20:55;26.00;54.50
65231;DHT22;51813;40.666;16.602;2023-09-19T05:23:21;26.00;54.40
65231;DHT22;51813;40.666;16.602;2023-09-19T05:25:47;25.90;54.70
65231;DHT22;51813;40.666;16.602;2023-09-19T05:28:12;25.90;54.80
65231;DHT22;51813;40.666;16.602;2023-09-19T05:30:40;25.80;54.70
65231;DHT22;51813;40.666;16.602;2023-09-19T05:33:08;25.80;54.90
65231;DHT22;51813;40.666;16.602;2023-09-19T05:35:35;25.70;54.90
65231;DHT22;51813;40.666;16.602;2023-09-19T05:38:05;25.70;55.00
65231;DHT22;51813;40.666;16.602;2023-09-19T05:40:34;25.70;55.00
65231;DHT22;51813;40.666;16.602;2023-09-19T05:43:00;25.80;55.00
65231;DHT22;51813;40.666;16.602;2023-09-19T05:45:27;25.80;55.00
65231;DHT22;51813;40.666;16.602;2023-09-19T05:47:53;25.80;54.90
65231;DHT22;51813;40.666;16.602;2023-09-19T05:50:29;25.90;54.70
65231;DHT22;51813;40.666;16.602;2023-09-19T05:52:55;25.90;54.80
65231;DHT22;51813;40.666;16.602;2023-09-19T05:55:23;25.80;54.60
65231;DHT22;51813;40.666;16.602;2023-09-19T05:57:54;25.70;54.70
65231;DHT22;51813;40.666;16.602;2023-09-19T06:00:21;25.70;54.80
65231;DHT22;51813;40.666;16.602;2023-09-19T06:02:57;25.70;54.80
65231;DHT22;51813;40.666;16.602;2023-09-19T06:05:24;25.80;54.60
65231;DHT22;51813;40.666;16.602;2023-09-19T06:07:50;25.80;54.60
65231;DHT22;51813;40.666;16.602;2023-09-19T06:10:18;25.90;54.10
65231;DHT22;51813;40.666;16.602;2023-09-19T06:12:46;25.90;53.70
65231;DHT22;51813;40.666;16.602;2023-09-19T06:15:13;25.90;54.10
65231;DHT22;51813;40.666;16.602;2023-09-19T06:17:54;25.80;54.10
65231;DHT22;51813;40.666;16.602;2023-09-19T06:20:25;25.80;53.90
65231;DHT22;51813;40.666;16.602;2023-09-19T06:22:51;25.70;53.90
65231;DHT22;51813;40.666;16.602;2023-09-19T06:25:17;25.80;53.90
65231;DHT22;51813;40.666;16.602;2023-09-19T06:27:51;25.80;54.00
65231;DHT22;51813;40.666;16.602;2023-09-19T06:30:19;25.70;53.50
65231;DHT22;51813;40.666;16.602;2023-09-19T06:32:45;25.80;53.20
65231;DHT22;51813;40.666;16.602;2023-09-19T06:35:12;25.80;53.20
65231;DHT22;51813;40.666;16.602;2023-09-19T06:37:39;25.80;53.30
65231;DHT22;51813;40.666;16.602;2023-09-19T06:40:12;25.80;53.10
65231;DHT22;51813;40.666;16.602;2023-09-19T06:42:43;25.80;53.20
65231;DHT22;51813;40.666;16.602;2023-09-19T06:45:13;25.90;53.40
65231;DHT22;51813;40.666;16.602;2023-09-19T06:47:44;25.90;53.00
65231;DHT22;51813;40.666;16.602;2023-09-19T06:50:10;25.90;53.00
65231;DHT22;51813;40.666;16.602;2023-09-19T06:52:42;25.90;52.40
65231;DHT22;51813;40.666;16.602;2023-09-19T06:55:08;25.90;52.50
65231;DHT22;51813;40.666;16.602;2023-09-19T06:57:37;26.00;52.50
65231;DHT22;51813;40.666;16.602;2023-09-19T07:00:03;26.00;52.20
65231;DHT22;51813;40.666;16.602;2023-09-19T07:02:35;26.00;52.10
65231;DHT22;51813;40.666;16.602;2023-09-19T07:05:00;25.90;52.40
65231;DHT22;51813;40.666;16.602;2023-09-19T07:07:26;25.80;52.50
65231;DHT22;51813;40.666;16.602;2023-09-19T07:09:52;25.90;52.30
65231;DHT22;51813;40.666;16.602;2023-09-19T07:12:19;26.00;52.30
65231;DHT22;51813;40.666;16.602;2023-09-19T07:14:45;25.90;52.70
65231;DHT22;51813;40.666;16.602;2023-09-19T07:17:10;25.90;52.80
65231;DHT22;51813;40.666;16.602;2023-09-19T07:19:37;25.90;53.20
65231;DHT22;51813;40.666;16.602;2023-09-19T07:22:02;25.90;53.20
65231;DHT22;51813;40.666;16.602;2023-09-19T07:24:28;25.90;53.40
65231;DHT22;51813;40.666;16.602;2023-09-19T07:26:54;25.90;53.70
65231;DHT22;51813;40.666;16.602;2023-09-19T07:29:20;25.90;53.90
65231;DHT22;51813;40.666;16.602;2023-09-19T07:31:45;25.90;54.20
65231;DHT22;51813;40.666;16.602;2023-09-19T07:34:12;25.90;53.90
65231;DHT22;51813;40.666;16.602;2023-09-19T07:36:39;25.80;54.00
65231;DHT22;51813;40.666;16.602;2023-09-19T07:39:06;25.70;54.40
65231;DHT22;51813;40.666;16.602;2023-09-19T07:41:32;25.80;54.70
65231;DHT22;51813;40.666;16.602;2023-09-19T07:43:58;25.90;54.50
65231;DHT22;51813;40.666;16.602;2023-09-19T07:46:24;25.90;54.30
65231;DHT22;51813;40.666;16.602;2023-09-19T07:48:51;25.90;54.50
65231;DHT22;51813;40.666;16.602;2023-09-19T07:51:17;25.90;54.40
65231;DHT22;51813;40.666;16.602;2023-09-19T07:53:43;26.00;53.50
65231;DHT22;51813;40.666;16.602;2023-09-19T07:56:10;26.10;51.00
65231;DHT22;51813;40.666;16.602;2023-09-19T07:58:38;26.20;49.20
65231;DHT22;51813;40.666;16.602;2023-09-19T08:01:06;26.30;50.00
65231;DHT22;51813;40.666;16.602;2023-09-19T08:03:33;26.50;49.50
65231;DHT22;51813;40.666;16.602;2023-09-19T08:06:00;26.70;49.60
65231;DHT22;51813;40.666;16.602;2023-09-19T08:08:27;26.80;49.60
65231;DHT22;51813;40.666;16.602;2023-09-19T08:10:54;26.90;48.90
65231;DHT22;51813;40.666;16.602;2023-09-19T08:13:22;27.00;47.40
65231;DHT22;51813;40.666;16.602;2023-09-19T08:15:48;27.10;47.50
65231;DHT22;51813;40.666;16.602;2023-09-19T08:18:15;27.10;47.20
65231;DHT22;51813;40.666;16.602;2023-09-19T08:20:41;27.20;45.70
65231;DHT22;51813;40.666;16.602;2023-09-19T08:23:08;27.20;47.70
65231;DHT22;51813;40.666;16.602;2023-09-19T08:25:34;27.20;46.60
65231;DHT22;51813;40.666;16.602;2023-09-19T08:28:00;27.30;44.70
65231;DHT22;51813;40.666;16.602;2023-09-19T08:30:29;27.20;43.20
65231;DHT22;51813;40.666;16.602;2023-09-19T08:33:02;27.40;48.70
65231;DHT22;51813;40.666;16.602;2023-09-19T08:35:28;27.30;44.00
65231;DHT22;51813;40.666;16.602;2023-09-19T08:37:54;27.30;43.40
65231;DHT22;51813;40.666;16.602;2023-09-19T08:40:21;27.30;45.50
65231;DHT22;51813;40.666;16.602;2023-09-19T08:42:51;27.40;47.00
65231;DHT22;51813;40.666;16.602;2023-09-19T08:45:17;27.30;45.10
65231;DHT22;51813;40.666;16.602;2023-09-19T08:47:50;27.40;44.10
65231;DHT22;51813;40.666;16.602;2023-09-19T08:50:28;27.30;45.10
65231;DHT22;51813;40.666;16.602;2023-09-19T08:53:02;27.40;45.90
65231;DHT22;51813;40.666;16.602;2023-09-19T08:55:31;27.40;45.60
65231;DHT22;51813;40.666;16.602;2023-09-19T08:58:04;27.40;45.90
65231;DHT22;51813;40.666;16.602;2023-09-19T09:00:32;27.30;44.70
65231;DHT22;51813;40.666;16.602;2023-09-19T09:02:59;27.40;44.70
65231;DHT22;51813;40.666;16.602;2023-09-19T09:05:27;27.40;44.80
65231;DHT22;51813;40.666;16.602;2023-09-19T09:07:54;27.40;43.90
65231;DHT22;51813;40.666;16.602;2023-09-19T09:10:22;27.40;45.60
65231;DHT22;51813;40.666;16.602;2023-09-19T09:12:52;27.40;45.40
65231;DHT22;51813;40.666;16.602;2023-09-19T09:15:18;27.50;43.60
65231;DHT22;51813;40.666;16.602;2023-09-19T09:17:47;27.50;43.80
65231;DHT22;51813;40.666;16.602;2023-09-19T09:20:14;27.50;44.20
65231;DHT22;51813;40.666;16.602;2023-09-19T09:22:53;27.50;44.00
65231;DHT22;51813;40.666;16.602;2023-09-19T09:25:19;27.50;42.50
65231;DHT22;51813;40.666;16.602;2023-09-19T09:27:59;27.50;42.60
65231;DHT22;51813;40.666;16.602;2023-09-19T09:30:37;27.50;45.20
65231;DHT22;51813;40.666;16.602;2023-09-19T09:33:12;27.60;44.80
65231;DHT22;51813;40.666;16.602;2023-09-19T09:35:53;27.70;44.20
65231;DHT22;51813;40.666;16.602;2023-09-19T09:38:20;27.70;41.40
65231;DHT22;51813;40.666;16.602;2023-09-19T09:40:48;27.70;43.60
65231;DHT22;51813;40.666;16.602;2023-09-19T09:43:35;27.80;45.10
65231;DHT22;51813;40.666;16.602;2023-09-19T09:46:17;27.70;44.50
65231;DHT22;51813;40.666;16.602;2023-09-19T09:48:47;27.80;44.30
65231;DHT22;51813;40.666;16.602;2023-09-19T09:51:33;27.80;42.00
65231;DHT22;51813;40.666;16.602;2023-09-19T09:54:12;27.80;42.30
65231;DHT22;51813;40.666;16.602;2023-09-19T09:56:56;27.80;42.00
65231;DHT22;51813;40.666;16.602;2023-09-19T09:59:53;27.80;42.80
65231;DHT22;51813;40.666;16.602;2023-09-19T10:02:36;27.80;41.90
65231;DHT22;51813;40.666;16.602;2023-09-19T10:07:53;27.90;40.80
65231;DHT22;51813;40.666;16.602;2023-09-19T10:10:37;27.90;41.40
65231;DHT22;51813;40.666;16.602;2023-09-19T10:13:10;27.90;40.20
65231;DHT22;51813;40.666;16.602;2023-09-19T10:15:44;27.90;41.50
65231;DHT22;51813;40.666;16.602;2023-09-19T10:18:14;27.90;41.10
65231;DHT22;51813;40.666;16.602;2023-09-19T10:20:45;28.00;41.30
65231;DHT22;51813;40.666;16.602;2023-09-19T10:23:12;28.00;40.40
65231;DHT22;51813;40.666;16.602;2023-09-19T10:25:43;28.00;41.30
65231;DHT22;51813;40.666;16.602;2023-09-19T10:28:12;28.00;41.80
65231;DHT22;51813;40.666;16.602;2023-09-19T10:30:41;28.10;39.40
65231;DHT22;51813;40.666;16.602;2023-09-19T10:33:23;28.20;40.50
65231;DHT22;51813;40.666;16.602;2023-09-19T10:35:52;28.30;39.20
65231;DHT22;51813;40.666;16.602;2023-09-19T10:38:24;28.30;38.00
65231;DHT22;51813;40.666;16.602;2023-09-19T10:40:52;28.40;38.60
65231;DHT22;51813;40.666;16.602;2023-09-19T10:43:20;28.50;38.10
65231;DHT22;51813;40.666;16.602;2023-09-19T10:45:48;28.60;37.60
65231;DHT22;51813;40.666;16.602;2023-09-19T10:48:16;28.50;38.90
65231;DHT22;51813;40.666;16.602;2023-09-19T10:53:26;28.60;38.00
65231;DHT22;51813;40.666;16.602;2023-09-19T10:55:56;28.70;38.90
65231;DHT22;51813;40.666;16.602;2023-09-19T10:58:31;28.60;37.80
65231;DHT22;51813;40.666;16.602;2023-09-19T11:01:00;28.80;37.20
65231;DHT22;51813;40.666;16.602;2023-09-19T11:03:38;28.90;38.40
65231;DHT22;51813;40.666;16.602;2023-09-19T11:06:18;28.90;37.60
65231;DHT22;51813;40.666;16.602;2023-09-19T11:09:03;28.90;37.10
65231;DHT22;51813;40.666;16.602;2023-09-19T11:11:40;28.90;37.00
65231;DHT22;51813;40.666;16.602;2023-09-19T11:14:15;29.00;36.40
65231;DHT22;51813;40.666;16.602;2023-09-19T11:30:37;29.20;37.80
65231;DHT22;51813;40.666;16.602;2023-09-19T11:33:31;29.20;36.20
65231;DHT22;51813;40.666;16.602;2023-09-19T11:36:16;29.20;37.80
65231;DHT22;51813;40.666;16.602;2023-09-19T11:43:53;29.30;36.40
65231;DHT22;51813;40.666;16.602;2023-09-19T11:46:24;29.30;35.90
65231;DHT22;51813;40.666;16.602;2023-09-19T11:48:51;29.30;36.10
65231;DHT22;51813;40.666;16.602;2023-09-19T11:51:21;29.40;35.50
65231;DHT22;51813;40.666;16.602;2023-09-19T11:53:52;29.30;35.80
65231;DHT22;51813;40.666;16.602;2023-09-19T11:56:23;29.40;36.40
65231;DHT22;51813;40.666;16.602;2023-09-19T11:58:52;29.30;37.10
65231;DHT22;51813;40.666;16.602;2023-09-19T12:01:29;29.20;38.50
65231;DHT22;51813;40.666;16.602;2023-09-19T12:03:57;28.90;37.70
65231;DHT22;51813;40.666;16.602;2023-09-19T12:06:24;28.90;38.80
65231;DHT22;51813;40.666;16.602;2023-09-19T12:08:51;28.90;39.50
65231;DHT22;51813;40.666;16.602;2023-09-19T12:11:19;28.90;40.40
65231;DHT22;51813;40.666;16.602;2023-09-19T12:13:47;28.80;41.40
65231;DHT22;51813;40.666;16.602;2023-09-19T12:18:41;28.80;41.50
65231;DHT22;51813;40.666;16.602;2023-09-19T12:21:30;28.90;41.60
65231;DHT22;51813;40.666;16.602;2023-09-19T12:24:07;28.90;40.10
65231;DHT22;51813;40.666;16.602;2023-09-19T12:26:43;28.90;40.00
65231;DHT22;51813;40.666;16.602;2023-09-19T12:29:21;29.00;39.70
65231;DHT22;51813;40.666;16.602;2023-09-19T12:31:51;28.90;39.10
65231;DHT22;51813;40.666;16.602;2023-09-19T12:34:23;29.00;41.30
65231;DHT22;51813;40.666;16.602;2023-09-19T12:37:13;29.00;41.60
65231;DHT22;51813;40.666;16.602;2023-09-19T12:39:51;29.00;41.90
65231;DHT22;51813;40.666;16.602;2023-09-19T12:42:23;29.00;40.40
65231;DHT22;51813;40.666;16.602;2023-09-19T12:44:51;28.90;40.30
65231;DHT22;51813;40.666;16.602;2023-09-19T12:47:23;28.90;39.80
65231;DHT22;51813;40.666;16.602;2023-09-19T12:50:08;29.00;40.30
65231;DHT22;51813;40.666;16.602;2023-09-19T12:52:43;29.20;37.60
65231;DHT22;51813;40.666;16.602;2023-09-19T12:57:59;29.40;36.80
65231;DHT22;51813;40.666;16.602;2023-09-19T13:03:24;29.60;36.80
65231;DHT22;51813;40.666;16.602;2023-09-19T13:06:01;29.60;35.80
65231;DHT22;51813;40.666;16.602;2023-09-19T13:08:28;29.60;36.20
65231;DHT22;51813;40.666;16.602;2023-09-19T13:11:16;29.70;36.30
65231;DHT22;51813;40.666;16.602;2023-09-19T13:17:16;29.80;35.60
65231;DHT22;51813;40.666;16.602;2023-09-19T13:19:46;29.80;35.70
65231;DHT22;51813;40.666;16.602;2023-09-19T13:25:09;29.90;35.80
65231;DHT22;51813;40.666;16.602;2023-09-19T13:27:40;30.00;35.30
65231;DHT22;51813;40.666;16.602;2023-09-19T13:30:06;29.90;34.50
65231;DHT22;51813;40.666;16.602;2023-09-19T13:32:33;30.00;35.10
65231;DHT22;51813;40.666;16.602;2023-09-19T13:34:59;30.00;34.40
65231;DHT22;51813;40.666;16.602;2023-09-19T13:37:25;30.00;34.60
65231;DHT22;51813;40.666;16.602;2023-09-19T13:39:52;30.00;34.80
65231;DHT22;51813;40.666;16.602;2023-09-19T13:42:19;30.00;35.50
65231;DHT22;51813;40.666;16.602;2023-09-19T13:44:47;30.00;35.00
65231;DHT22;51813;40.666;16.602;2023-09-19T13:47:13;30.00;34.70
65231;DHT22;51813;40.666;16.602;2023-09-19T13:49:40;29.90;37.00
65231;DHT22;51813;40.666;16.602;2023-09-19T13:52:07;29.90;38.40
65231;DHT22;51813;40.666;16.602;2023-09-19T13:54:34;29.80;39.80
65231;DHT22;51813;40.666;16.602;2023-09-19T13:56:59;30.00;41.10
65231;DHT22;51813;40.666;16.602;2023-09-19T13:59:26;29.90;41.80
65231;DHT22;51813;40.666;16.602;2023-09-19T14:01:53;30.00;41.50
65231;DHT22;51813;40.666;16.602;2023-09-19T14:04:20;30.00;41.90
65231;DHT22;51813;40.666;16.602;2023-09-19T14:06:47;30.00;42.10
65231;DHT22;51813;40.666;16.602;2023-09-19T14:09:13;30.00;43.00
65231;DHT22;51813;40.666;16.602;2023-09-19T14:11:39;30.00;42.90
65231;DHT22;51813;40.666;16.602;2023-09-19T14:14:05;30.00;42.90
65231;DHT22;51813;40.666;16.602;2023-09-19T14:16:31;30.00;42.50
65231;DHT22;51813;40.666;16.602;2023-09-19T14:18:57;29.80;42.60
65231;DHT22;51813;40.666;16.602;2023-09-19T14:21:26;29.60;43.00
65231;DHT22;51813;40.666;16.602;2023-09-19T14:23:51;29.30;43.50
65231;DHT22;51813;40.666;16.602;2023-09-19T14:26:20;29.20;44.00
65231;DHT22;51813;40.666;16.602;2023-09-19T14:28:45;29.00;44.30
65231;DHT22;51813;40.666;16.602;2023-09-19T14:31:11;28.80;44.70
65231;DHT22;51813;40.666;16.602;2023-09-19T14:33:37;28.80;45.60
65231;DHT22;51813;40.666;16.602;2023-09-19T14:36:08;29.10;45.50
65231;DHT22;51813;40.666;16.602;2023-09-19T14:38:35;29.20;45.70
65231;DHT22;51813;40.666;16.602;2023-09-19T14:41:05;29.30;45.70
65231;DHT22;51813;40.666;16.602;2023-09-19T14:43:31;29.30;46.30
65231;DHT22;51813;40.666;16.602;2023-09-19T14:46:07;29.40;46.50
65231;DHT22;51813;40.666;16.602;2023-09-19T14:48:34;29.40;46.30
65231;DHT22;51813;40.666;16.602;2023-09-19T14:51:03;29.40;46.70
65231;DHT22;51813;40.666;16.602;2023-09-19T14:53:32;29.30;47.00
65231;DHT22;51813;40.666;16.602;2023-09-19T14:56:02;29.30;47.00
65231;DHT22;51813;40.666;16.602;2023-09-19T14:58:29;29.20;47.20
65231;DHT22;51813;40.666;16.602;2023-09-19T15:01:06;29.30;47.60
65231;DHT22;51813;40.666;16.602;2023-09-19T15:03:33;29.20;47.90
65231;DHT22;51813;40.666;16.602;2023-09-19T15:06:01;29.20;48.10
65231;DHT22;51813;40.666;16.602;2023-09-19T15:08:27;29.20;48.10
65231;DHT22;51813;40.666;16.602;2023-09-19T15:10:52;29.20;48.20
65231;DHT22;51813;40.666;16.602;2023-09-19T15:13:19;29.20;48.00
65231;DHT22;51813;40.666;16.602;2023-09-19T15:15:45;29.10;47.60
65231;DHT22;51813;40.666;16.602;2023-09-19T15:18:13;28.90;48.00
65231;DHT22;51813;40.666;16.602;2023-09-19T15:20:46;28.70;48.40
65231;DHT22;51813;40.666;16.602;2023-09-19T15:23:12;28.50;48.70
65231;DHT22;51813;40.666;16.602;2023-09-19T15:25:38;28.30;49.10
65231;DHT22;51813;40.666;16.602;2023-09-19T15:28:06;28.30;49.10
65231;DHT22;51813;40.666;16.602;2023-09-19T15:30:37;28.20;49.10
65231;DHT22;51813;40.666;16.602;2023-09-19T15:33:04;28.20;49.10
65231;DHT22;51813;40.666;16.602;2023-09-19T15:35:29;28.20;49.00
65231;DHT22;51813;40.666;16.602;2023-09-19T15:37:55;28.20;49.10
65231;DHT22;51813;40.666;16.602;2023-09-19T15:40:22;28.10;49.10
65231;DHT22;51813;40.666;16.602;2023-09-19T15:42:49;28.10;49.10
65231;DHT22;51813;40.666;16.602;2023-09-19T15:45:15;28.10;49.10
65231;DHT22;51813;40.666;16.602;2023-09-19T15:47:42;28.10;49.30
65231;DHT22;51813;40.666;16.602;2023-09-19T15:50:08;28.00;49.30
65231;DHT22;51813;40.666;16.602;2023-09-19T15:52:41;28.00;49.50
65231;DHT22;51813;40.666;16.602;2023-09-19T15:55:07;27.90;49.60
65231;DHT22;51813;40.666;16.602;2023-09-19T15:57:38;28.00;49.30
65231;DHT22;51813;40.666;16.602;2023-09-19T16:00:04;28.10;49.40
65231;DHT22;51813;40.666;16.602;2023-09-19T16:02:38;28.00;49.50
65231;DHT22;51813;40.666;16.602;2023-09-19T16:05:03;27.90;49.60
65231;DHT22;51813;40.666;16.602;2023-09-19T16:07:31;27.90;49.50
65231;DHT22;51813;40.666;16.602;2023-09-19T16:09:57;27.90;49.70
65231;DHT22;51813;40.666;16.602;2023-09-19T16:12:25;27.90;49.80
65231;DHT22;51813;40.666;16.602;2023-09-19T16:14:51;27.90;49.80
65231;DHT22;51813;40.666;16.602;2023-09-19T16:17:17;27.90;50.00